Yreka, CA (96097)

10:00 PM PDT on October 21, 2014 (GMT -0700)
Siskiyou County | Change Station
CLOSE
Current Station
Airport
Location: Montague,
Elevation: 2648 ft
Nearby Weather Stations
Active Advisory: Wind Advisory

Elev 2648 ft 41.78 °N, 122.47 °W | Updated 7 minutes ago

Partly Cloudy
Partly Cloudy
49 °F
Feels Like 49 °F
N
0
Wind Variable Wind from North

Today
High -- | Low -- °F
--% Chance of Precip.
Yesterday
High -- | Low -- °F
Precip. -- in
7:29 AM 6:19 PM
Waning Crescent, 3% visible
Pressure 30.09 in
Visibility 10.0 miles
Clouds Clear
Dew Point 41 °F
Humidity 74%
Rainfall 0.00 in
Snow Depth Not available.
UV 0 out of 12
Pollen 1.20 out of 12
Air Quality Not available.
Flu Activity Not available.
METAR KSIY 220453Z AUTO 00000KT 10SM CLR 09/05 A3005 RMK AO2 SLP187 T00940050

More Conditions Fewer Conditions

Pressure 30.09 in
Visibility 10.0 miles
Clouds Clear
Dew Point 41 °F
Humidity 74%
Rainfall 0.00 in
Snow Depth Not available.
UV 0 out of 12
Pollen 1.20 out of 12
Air Quality Not available.
Flu Activity Not available.
METAR KSIY 220453Z AUTO 00000KT 10SM CLR 09/05 A3005 RMK AO2 SLP187 T00940050

More Conditions Fewer Conditions

10-Day Weather Forecast

Almanac

Astronomy

Oct. 21, 2014 Rise Set
Actual Time 7:29 AM PDT 6:19 PM PDT
Civil Twilight 7:01 AM PDT 6:48 PM PDT
Nautical Twilight 6:28 AM PDT 7:20 PM PDT
Astronomical Twilight 5:56 AM PDT 7:52 PM PDT
Moon 5:17 AM PDT (10/21) 5:18 PM PDT (10/21)
Length of Visible Light 11h 46m
Length of Day
10h 50m
Tomorrow will be 2m 38s shorter.
Waning Crescent, 3% of the Moon is Illuminated
Oct 22
Waning Crescent
Oct 23
New
Oct 30
First Quarter
Nov 6
Full
Nov 14
Last Quarter

Yesterday's Extremes

State Highs State Lows

Community

WunderPhotos

Upload Photos

1,763,884 photos uploaded!

Nearby

Snow Depth

Station Depth Elevation
Adin Mountain 0 in 6200 ft
Independence Camp 0 in 7000 ft
Independence Lake 0 in 8450 ft
CSS Lab 1 in 6900 ft
Squaw Valley 0 in 8200 ft

Earthquake Activity

City Distance Mag. Time & Date
Rio Dell, California 136 miles 4.2 7:24 AM PDT
2014-10-19
Minimum magnitude displayed is 2.5.

Coastal Water Temperatures

Place Temperature
No Stations Reporting

Nearby Weather Stations